sensor_id;sensor_type;location;lat;lon;timestamp;temperature;humidity
19555;DHT22;9924;50.828;6.440;2023-01-23T00:02:03;1.10;99.90
19555;DHT22;9924;50.828;6.440;2023-01-23T00:04:48;1.10;99.90
19555;DHT22;9924;50.828;6.440;2023-01-23T00:07:33;1.10;99.90
19555;DHT22;9924;50.828;6.440;2023-01-23T00:10:21;1.20;99.90
19555;DHT22;9924;50.828;6.440;2023-01-23T00:13:06;1.20;99.90
19555;DHT22;9924;50.828;6.440;2023-01-23T00:15:50;1.20;99.90
19555;DHT22;9924;50.828;6.440;2023-01-23T00:18:38;1.20;99.90
19555;DHT22;9924;50.828;6.440;2023-01-23T00:21:26;1.10;99.90
19555;DHT22;9924;50.828;6.440;2023-01-23T00:24:11;1.10;99.90
19555;DHT22;9924;50.828;6.440;2023-01-23T00:26:55;1.10;99.90
19555;DHT22;9924;50.828;6.440;2023-01-23T00:29:40;1.10;99.90
19555;DHT22;9924;50.828;6.440;2023-01-23T00:32:25;1.10;99.90
19555;DHT22;9924;50.828;6.440;2023-01-23T00:35:10;1.10;99.90
19555;DHT22;9924;50.828;6.440;2023-01-23T00:37:55;1.10;99.90
19555;DHT22;9924;50.828;6.440;2023-01-23T00:40:40;1.20;99.90
19555;DHT22;9924;50.828;6.440;2023-01-23T00:43:25;1.20;99.90
19555;DHT22;9924;50.828;6.440;2023-01-23T00:46:09;1.20;99.90
19555;DHT22;9924;50.828;6.440;2023-01-23T00:48:53;1.10;99.90
19555;DHT22;9924;50.828;6.440;2023-01-23T00:51:37;1.10;99.90
19555;DHT22;9924;50.828;6.440;2023-01-23T00:54:22;1.10;99.90
19555;DHT22;9924;50.828;6.440;2023-01-23T00:57:09;1.10;99.90
19555;DHT22;9924;50.828;6.440;2023-01-23T00:59:53;1.10;99.90
19555;DHT22;9924;50.828;6.440;2023-01-23T01:02:37;1.10;99.90
19555;DHT22;9924;50.828;6.440;2023-01-23T01:05:22;1.10;99.90
19555;DHT22;9924;50.828;6.440;2023-01-23T01:08:07;1.10;99.90
19555;DHT22;9924;50.828;6.440;2023-01-23T01:10:51;1.10;99.90
19555;DHT22;9924;50.828;6.440;2023-01-23T01:13:36;1.10;99.90
19555;DHT22;9924;50.828;6.440;2023-01-23T01:16:21;1.20;99.90
19555;DHT22;9924;50.828;6.440;2023-01-23T01:19:07;1.10;99.90
19555;DHT22;9924;50.828;6.440;2023-01-23T01:21:51;1.10;99.90
19555;DHT22;9924;50.828;6.440;2023-01-23T01:24:35;1.20;99.90
19555;DHT22;9924;50.828;6.440;2023-01-23T01:27:20;1.20;99.90
19555;DHT22;9924;50.828;6.440;2023-01-23T01:30:05;1.20;99.90
19555;DHT22;9924;50.828;6.440;2023-01-23T01:32:50;1.20;99.90
19555;DHT22;9924;50.828;6.440;2023-01-23T01:35:34;1.10;99.90
19555;DHT22;9924;50.828;6.440;2023-01-23T01:38:19;1.10;99.90
19555;DHT22;9924;50.828;6.440;2023-01-23T01:41:04;1.10;99.90
19555;DHT22;9924;50.828;6.440;2023-01-23T01:43:48;1.10;99.90
19555;DHT22;9924;50.828;6.440;2023-01-23T01:46:34;1.10;99.90
19555;DHT22;9924;50.828;6.440;2023-01-23T01:49:29;1.20;99.90
19555;DHT22;9924;50.828;6.440;2023-01-23T01:52:14;1.20;99.90
19555;DHT22;9924;50.828;6.440;2023-01-23T01:55:04;1.10;99.90
19555;DHT22;9924;50.828;6.440;2023-01-23T01:57:54;1.10;99.90
19555;DHT22;9924;50.828;6.440;2023-01-23T02:00:39;1.10;99.90
19555;DHT22;9924;50.828;6.440;2023-01-23T02:03:24;1.20;99.90
19555;DHT22;9924;50.828;6.440;2023-01-23T02:06:10;1.20;99.90
19555;DHT22;9924;50.828;6.440;2023-01-23T02:09:04;1.30;99.90
19555;DHT22;9924;50.828;6.440;2023-01-23T02:11:49;1.30;99.90
19555;DHT22;9924;50.828;6.440;2023-01-23T02:14:34;1.30;99.90
19555;DHT22;9924;50.828;6.440;2023-01-23T02:17:18;1.30;99.90
19555;DHT22;9924;50.828;6.440;2023-01-23T02:20:18;1.30;99.90
19555;DHT22;9924;50.828;6.440;2023-01-23T02:26:03;1.30;99.90
19555;DHT22;9924;50.828;6.440;2023-01-23T02:28:50;1.30;99.90
19555;DHT22;9924;50.828;6.440;2023-01-23T02:31:35;1.30;99.90
19555;DHT22;9924;50.828;6.440;2023-01-23T02:34:20;1.30;99.90
19555;DHT22;9924;50.828;6.440;2023-01-23T02:37:07;1.40;99.90
19555;DHT22;9924;50.828;6.440;2023-01-23T02:39:52;1.40;99.90
19555;DHT22;9924;50.828;6.440;2023-01-23T02:42:39;1.30;99.90
19555;DHT22;9924;50.828;6.440;2023-01-23T02:45:26;1.30;99.90
19555;DHT22;9924;50.828;6.440;2023-01-23T02:48:11;1.30;99.90
19555;DHT22;9924;50.828;6.440;2023-01-23T02:50:56;1.30;99.90
19555;DHT22;9924;50.828;6.440;2023-01-23T02:53:40;1.40;99.90
19555;DHT22;9924;50.828;6.440;2023-01-23T02:56:28;1.40;99.90
19555;DHT22;9924;50.828;6.440;2023-01-23T02:59:13;1.50;99.90
19555;DHT22;9924;50.828;6.440;2023-01-23T03:02:16;1.50;99.90
19555;DHT22;9924;50.828;6.440;2023-01-23T03:05:01;1.50;99.90
19555;DHT22;9924;50.828;6.440;2023-01-23T03:07:46;1.50;99.90
19555;DHT22;9924;50.828;6.440;2023-01-23T03:10:30;1.50;99.90
19555;DHT22;9924;50.828;6.440;2023-01-23T03:13:15;1.50;99.90
19555;DHT22;9924;50.828;6.440;2023-01-23T03:15:59;1.50;99.90
19555;DHT22;9924;50.828;6.440;2023-01-23T03:18:44;1.50;99.90
19555;DHT22;9924;50.828;6.440;2023-01-23T03:21:32;1.50;99.90
19555;DHT22;9924;50.828;6.440;2023-01-23T03:24:18;1.60;99.90
19555;DHT22;9924;50.828;6.440;2023-01-23T03:27:03;1.60;99.90
19555;DHT22;9924;50.828;6.440;2023-01-23T03:29:47;1.60;99.90
19555;DHT22;9924;50.828;6.440;2023-01-23T03:32:51;1.60;99.90
19555;DHT22;9924;50.828;6.440;2023-01-23T03:35:35;1.50;99.90
19555;DHT22;9924;50.828;6.440;2023-01-23T03:38:20;1.50;99.90
19555;DHT22;9924;50.828;6.440;2023-01-23T03:41:04;1.50;99.90
19555;DHT22;9924;50.828;6.440;2023-01-23T03:44:08;1.40;99.90
19555;DHT22;9924;50.828;6.440;2023-01-23T03:46:53;1.50;99.90
19555;DHT22;9924;50.828;6.440;2023-01-23T03:49:37;1.50;99.90
19555;DHT22;9924;50.828;6.440;2023-01-23T03:52:22;1.50;99.90
19555;DHT22;9924;50.828;6.440;2023-01-23T03:55:07;1.40;99.90
19555;DHT22;9924;50.828;6.440;2023-01-23T03:57:51;1.40;99.90
19555;DHT22;9924;50.828;6.440;2023-01-23T04:00:35;1.40;99.90
19555;DHT22;9924;50.828;6.440;2023-01-23T04:03:20;1.40;99.90
19555;DHT22;9924;50.828;6.440;2023-01-23T04:06:04;1.40;99.90
19555;DHT22;9924;50.828;6.440;2023-01-23T04:08:50;1.40;99.90
19555;DHT22;9924;50.828;6.440;2023-01-23T04:11:34;1.40;99.90
19555;DHT22;9924;50.828;6.440;2023-01-23T04:14:20;1.50;99.90
19555;DHT22;9924;50.828;6.440;2023-01-23T04:17:05;1.50;99.90
19555;DHT22;9924;50.828;6.440;2023-01-23T04:19:50;1.50;99.90
19555;DHT22;9924;50.828;6.440;2023-01-23T04:22:34;1.40;99.90
19555;DHT22;9924;50.828;6.440;2023-01-23T04:25:18;1.40;99.90
19555;DHT22;9924;50.828;6.440;2023-01-23T04:28:03;1.40;99.90
19555;DHT22;9924;50.828;6.440;2023-01-23T04:30:49;1.50;99.90
19555;DHT22;9924;50.828;6.440;2023-01-23T04:33:34;1.50;99.90
19555;DHT22;9924;50.828;6.440;2023-01-23T04:36:19;1.50;99.90
19555;DHT22;9924;50.828;6.440;2023-01-23T04:46:26;1.30;99.90
19555;DHT22;9924;50.828;6.440;2023-01-23T04:49:11;1.20;99.90
19555;DHT22;9924;50.828;6.440;2023-01-23T04:51:55;1.20;99.90
19555;DHT22;9924;50.828;6.440;2023-01-23T04:54:40;1.20;99.90
19555;DHT22;9924;50.828;6.440;2023-01-23T04:57:25;1.30;99.90
19555;DHT22;9924;50.828;6.440;2023-01-23T05:00:10;1.30;99.90
19555;DHT22;9924;50.828;6.440;2023-01-23T05:02:55;1.30;99.90
19555;DHT22;9924;50.828;6.440;2023-01-23T05:05:41;1.30;99.90
19555;DHT22;9924;50.828;6.440;2023-01-23T05:08:27;1.30;99.90
19555;DHT22;9924;50.828;6.440;2023-01-23T05:11:12;1.30;99.90
19555;DHT22;9924;50.828;6.440;2023-01-23T05:13:57;1.30;99.90
19555;DHT22;9924;50.828;6.440;2023-01-23T05:16:42;1.40;99.90
19555;DHT22;9924;50.828;6.440;2023-01-23T05:19:27;1.30;99.90
19555;DHT22;9924;50.828;6.440;2023-01-23T05:22:12;1.30;99.90
19555;DHT22;9924;50.828;6.440;2023-01-23T05:24:57;1.30;99.90
19555;DHT22;9924;50.828;6.440;2023-01-23T05:27:41;1.30;99.90
19555;DHT22;9924;50.828;6.440;2023-01-23T05:30:26;1.30;99.90
19555;DHT22;9924;50.828;6.440;2023-01-23T05:33:13;1.30;99.90
19555;DHT22;9924;50.828;6.440;2023-01-23T05:35:58;1.30;99.90
19555;DHT22;9924;50.828;6.440;2023-01-23T05:38:43;1.30;99.90
19555;DHT22;9924;50.828;6.440;2023-01-23T05:41:27;1.30;99.90
19555;DHT22;9924;50.828;6.440;2023-01-23T05:44:12;1.30;99.90
19555;DHT22;9924;50.828;6.440;2023-01-23T05:46:57;1.30;99.90
19555;DHT22;9924;50.828;6.440;2023-01-23T05:49:41;1.30;99.90
19555;DHT22;9924;50.828;6.440;2023-01-23T05:52:26;1.30;99.90
19555;DHT22;9924;50.828;6.440;2023-01-23T05:55:11;1.30;99.90
19555;DHT22;9924;50.828;6.440;2023-01-23T05:57:55;1.30;99.90
19555;DHT22;9924;50.828;6.440;2023-01-23T06:00:40;1.30;99.90
19555;DHT22;9924;50.828;6.440;2023-01-23T06:03:24;1.30;99.90
19555;DHT22;9924;50.828;6.440;2023-01-23T06:06:08;1.30;99.90
19555;DHT22;9924;50.828;6.440;2023-01-23T06:08:54;1.30;99.90
19555;DHT22;9924;50.828;6.440;2023-01-23T06:11:38;1.30;99.90
19555;DHT22;9924;50.828;6.440;2023-01-23T06:14:23;1.30;99.90
19555;DHT22;9924;50.828;6.440;2023-01-23T06:17:07;1.30;99.90
19555;DHT22;9924;50.828;6.440;2023-01-23T06:19:51;1.30;99.90
19555;DHT22;9924;50.828;6.440;2023-01-23T06:22:36;1.30;99.90
19555;DHT22;9924;50.828;6.440;2023-01-23T06:25:20;1.30;99.90
19555;DHT22;9924;50.828;6.440;2023-01-23T06:28:05;1.30;99.90
19555;DHT22;9924;50.828;6.440;2023-01-23T06:30:50;1.30;99.90
19555;DHT22;9924;50.828;6.440;2023-01-23T06:33:35;1.30;99.90
19555;DHT22;9924;50.828;6.440;2023-01-23T06:36:20;1.30;99.90
19555;DHT22;9924;50.828;6.440;2023-01-23T06:39:05;1.30;99.90
19555;DHT22;9924;50.828;6.440;2023-01-23T06:41:49;1.30;99.90
19555;DHT22;9924;50.828;6.440;2023-01-23T06:44:33;1.30;99.90
19555;DHT22;9924;50.828;6.440;2023-01-23T06:47:18;1.30;99.90
19555;DHT22;9924;50.828;6.440;2023-01-23T06:50:04;1.30;99.90
19555;DHT22;9924;50.828;6.440;2023-01-23T06:52:48;1.30;99.90
19555;DHT22;9924;50.828;6.440;2023-01-23T06:55:33;1.30;99.90
19555;DHT22;9924;50.828;6.440;2023-01-23T06:58:19;1.30;99.90
19555;DHT22;9924;50.828;6.440;2023-01-23T07:01:13;1.30;99.90
19555;DHT22;9924;50.828;6.440;2023-01-23T07:04:01;1.30;99.90
19555;DHT22;9924;50.828;6.440;2023-01-23T07:06:45;1.30;99.90
19555;DHT22;9924;50.828;6.440;2023-01-23T07:09:30;1.30;99.90
19555;DHT22;9924;50.828;6.440;2023-01-23T07:12:15;1.30;99.90
19555;DHT22;9924;50.828;6.440;2023-01-23T07:14:59;1.30;99.90
19555;DHT22;9924;50.828;6.440;2023-01-23T07:17:43;1.30;99.90
19555;DHT22;9924;50.828;6.440;2023-01-23T07:20:28;1.30;99.90
19555;DHT22;9924;50.828;6.440;2023-01-23T07:23:13;1.30;99.90
19555;DHT22;9924;50.828;6.440;2023-01-23T07:26:01;1.30;99.90
19555;DHT22;9924;50.828;6.440;2023-01-23T07:28:46;1.30;99.90
19555;DHT22;9924;50.828;6.440;2023-01-23T07:31:31;1.30;99.90
19555;DHT22;9924;50.828;6.440;2023-01-23T07:34:15;1.30;99.90
19555;DHT22;9924;50.828;6.440;2023-01-23T07:36:59;1.40;99.90
19555;DHT22;9924;50.828;6.440;2023-01-23T07:39:53;1.40;99.90
19555;DHT22;9924;50.828;6.440;2023-01-23T07:42:38;1.40;99.90
19555;DHT22;9924;50.828;6.440;2023-01-23T07:45:24;1.40;99.90
19555;DHT22;9924;50.828;6.440;2023-01-23T07:48:09;1.50;99.90
19555;DHT22;9924;50.828;6.440;2023-01-23T07:50:54;1.50;99.90
19555;DHT22;9924;50.828;6.440;2023-01-23T07:53:38;1.50;99.90
19555;DHT22;9924;50.828;6.440;2023-01-23T07:56:23;1.50;99.90
19555;DHT22;9924;50.828;6.440;2023-01-23T07:59:07;1.50;99.90
19555;DHT22;9924;50.828;6.440;2023-01-23T08:01:52;1.60;99.90
19555;DHT22;9924;50.828;6.440;2023-01-23T08:04:36;1.60;99.90
19555;DHT22;9924;50.828;6.440;2023-01-23T08:07:21;1.60;99.90
19555;DHT22;9924;50.828;6.440;2023-01-23T08:10:07;1.60;99.90
19555;DHT22;9924;50.828;6.440;2023-01-23T08:12:52;1.60;99.90
19555;DHT22;9924;50.828;6.440;2023-01-23T08:15:37;1.60;99.90
19555;DHT22;9924;50.828;6.440;2023-01-23T08:18:21;1.70;99.90
19555;DHT22;9924;50.828;6.440;2023-01-23T08:21:06;1.70;99.90
19555;DHT22;9924;50.828;6.440;2023-01-23T08:23:50;1.80;99.90
19555;DHT22;9924;50.828;6.440;2023-01-23T08:26:35;1.90;99.90
19555;DHT22;9924;50.828;6.440;2023-01-23T08:29:19;1.90;99.90
19555;DHT22;9924;50.828;6.440;2023-01-23T08:32:04;2.00;99.90
19555;DHT22;9924;50.828;6.440;2023-01-23T08:34:49;2.00;99.90
19555;DHT22;9924;50.828;6.440;2023-01-23T08:37:33;2.10;99.90
19555;DHT22;9924;50.828;6.440;2023-01-23T08:40:19;2.20;99.90
19555;DHT22;9924;50.828;6.440;2023-01-23T08:43:04;2.10;99.90
19555;DHT22;9924;50.828;6.440;2023-01-23T08:45:50;2.10;99.90
19555;DHT22;9924;50.828;6.440;2023-01-23T08:48:35;2.20;99.90
19555;DHT22;9924;50.828;6.440;2023-01-23T08:51:20;2.10;99.90
19555;DHT22;9924;50.828;6.440;2023-01-23T08:54:04;2.20;99.90
19555;DHT22;9924;50.828;6.440;2023-01-23T08:56:49;2.20;99.90
19555;DHT22;9924;50.828;6.440;2023-01-23T08:59:33;2.30;99.90
19555;DHT22;9924;50.828;6.440;2023-01-23T09:02:18;2.40;99.90
19555;DHT22;9924;50.828;6.440;2023-01-23T09:05:03;2.40;99.90
19555;DHT22;9924;50.828;6.440;2023-01-23T09:07:47;2.40;99.90
19555;DHT22;9924;50.828;6.440;2023-01-23T09:10:32;2.30;99.90
19555;DHT22;9924;50.828;6.440;2023-01-23T09:13:16;2.40;99.90
19555;DHT22;9924;50.828;6.440;2023-01-23T09:16:04;2.50;99.90
19555;DHT22;9924;50.828;6.440;2023-01-23T09:18:48;2.50;99.90
19555;DHT22;9924;50.828;6.440;2023-01-23T09:21:33;2.50;99.90
19555;DHT22;9924;50.828;6.440;2023-01-23T09:24:17;2.60;99.90
19555;DHT22;9924;50.828;6.440;2023-01-23T09:27:01;2.70;99.90
19555;DHT22;9924;50.828;6.440;2023-01-23T09:29:45;2.80;99.90
19555;DHT22;9924;50.828;6.440;2023-01-23T09:32:30;2.80;99.90
19555;DHT22;9924;50.828;6.440;2023-01-23T09:35:14;2.80;99.90
19555;DHT22;9924;50.828;6.440;2023-01-23T09:37:59;2.80;99.90
19555;DHT22;9924;50.828;6.440;2023-01-23T09:40:51;2.70;99.90
19555;DHT22;9924;50.828;6.440;2023-01-23T09:49:39;2.70;99.90
19555;DHT22;9924;50.828;6.440;2023-01-23T09:52:37;2.70;99.90
19555;DHT22;9924;50.828;6.440;2023-01-23T09:56:18;2.70;99.90
19555;DHT22;9924;50.828;6.440;2023-01-23T10:01:51;2.60;99.90
19555;DHT22;9924;50.828;6.440;2023-01-23T10:04:36;2.60;99.90
19555;DHT22;9924;50.828;6.440;2023-01-23T10:11:16;2.70;99.90
19555;DHT22;9924;50.828;6.440;2023-01-23T10:20:13;2.70;99.90
19555;DHT22;9924;50.828;6.440;2023-01-23T10:23:35;2.80;99.90
19555;DHT22;9924;50.828;6.440;2023-01-23T10:26:41;2.80;99.90
19555;DHT22;9924;50.828;6.440;2023-01-23T10:29:31;2.80;99.90
19555;DHT22;9924;50.828;6.440;2023-01-23T10:32:27;2.80;99.90
19555;DHT22;9924;50.828;6.440;2023-01-23T10:35:19;2.80;99.90
19555;DHT22;9924;50.828;6.440;2023-01-23T10:40:50;2.70;99.90
19555;DHT22;9924;50.828;6.440;2023-01-23T10:43:54;2.70;99.90
19555;DHT22;9924;50.828;6.440;2023-01-23T10:46:52;2.60;99.90
19555;DHT22;9924;50.828;6.440;2023-01-23T10:49:43;2.60;99.90
19555;DHT22;9924;50.828;6.440;2023-01-23T10:52:32;2.70;99.90
19555;DHT22;9924;50.828;6.440;2023-01-23T10:58:02;2.80;99.90
19555;DHT22;9924;50.828;6.440;2023-01-23T11:00:47;2.80;99.90
19555;DHT22;9924;50.828;6.440;2023-01-23T11:03:34;2.90;99.90
19555;DHT22;9924;50.828;6.440;2023-01-23T11:06:21;3.00;99.90
19555;DHT22;9924;50.828;6.440;2023-01-23T11:09:19;3.00;99.90
19555;DHT22;9924;50.828;6.440;2023-01-23T11:12:05;3.00;99.90
19555;DHT22;9924;50.828;6.440;2023-01-23T11:14:50;3.10;99.90
19555;DHT22;9924;50.828;6.440;2023-01-23T11:17:34;3.10;99.90
19555;DHT22;9924;50.828;6.440;2023-01-23T11:20:51;3.20;99.90
19555;DHT22;9924;50.828;6.440;2023-01-23T11:23:38;3.20;99.90
19555;DHT22;9924;50.828;6.440;2023-01-23T11:26:33;3.40;99.90
19555;DHT22;9924;50.828;6.440;2023-01-23T11:29:24;3.30;99.90
19555;DHT22;9924;50.828;6.440;2023-01-23T11:32:12;3.30;99.90
19555;DHT22;9924;50.828;6.440;2023-01-23T11:35:09;3.40;99.90
19555;DHT22;9924;50.828;6.440;2023-01-23T11:37:56;3.50;99.90
19555;DHT22;9924;50.828;6.440;2023-01-23T11:40:41;3.60;99.90
19555;DHT22;9924;50.828;6.440;2023-01-23T11:43:26;3.70;99.90
19555;DHT22;9924;50.828;6.440;2023-01-23T11:49:25;3.60;99.90
19555;DHT22;9924;50.828;6.440;2023-01-23T11:52:42;3.60;99.90
19555;DHT22;9924;50.828;6.440;2023-01-23T11:56:16;3.60;99.90
19555;DHT22;9924;50.828;6.440;2023-01-23T12:05:30;3.50;99.90
19555;DHT22;9924;50.828;6.440;2023-01-23T12:08:35;3.50;99.90
19555;DHT22;9924;50.828;6.440;2023-01-23T12:11:23;3.50;99.90
19555;DHT22;9924;50.828;6.440;2023-01-23T12:14:14;3.60;99.90
19555;DHT22;9924;50.828;6.440;2023-01-23T12:17:14;3.70;99.90
19555;DHT22;9924;50.828;6.440;2023-01-23T12:23:43;3.80;99.90
19555;DHT22;9924;50.828;6.440;2023-01-23T12:26:30;3.70;99.90
19555;DHT22;9924;50.828;6.440;2023-01-23T12:32:55;3.90;99.90
19555;DHT22;9924;50.828;6.440;2023-01-23T12:35:46;3.90;99.90
19555;DHT22;9924;50.828;6.440;2023-01-23T12:38:38;3.80;99.90
19555;DHT22;9924;50.828;6.440;2023-01-23T12:45:02;3.80;99.90
19555;DHT22;9924;50.828;6.440;2023-01-23T12:47:54;3.80;99.90
19555;DHT22;9924;50.828;6.440;2023-01-23T12:50:51;3.80;99.90
19555;DHT22;9924;50.828;6.440;2023-01-23T12:53:38;3.80;99.90
19555;DHT22;9924;50.828;6.440;2023-01-23T12:56:30;3.70;99.90
19555;DHT22;9924;50.828;6.440;2023-01-23T12:59:20;3.80;99.90
19555;DHT22;9924;50.828;6.440;2023-01-23T13:03:01;3.70;99.90
19555;DHT22;9924;50.828;6.440;2023-01-23T13:05:19;3.70;99.90
19555;DHT22;9924;50.828;6.440;2023-01-23T13:08:39;3.60;99.90
19555;DHT22;9924;50.828;6.440;2023-01-23T13:12:30;3.60;99.90
19555;DHT22;9924;50.828;6.440;2023-01-23T13:18:01;3.50;99.90
19555;DHT22;9924;50.828;6.440;2023-01-23T13:20:58;3.50;99.90
19555;DHT22;9924;50.828;6.440;2023-01-23T13:27:41;3.60;99.90
19555;DHT22;9924;50.828;6.440;2023-01-23T13:36:28;3.60;99.90
19555;DHT22;9924;50.828;6.440;2023-01-23T13:48:13;3.50;99.90
19555;DHT22;9924;50.828;6.440;2023-01-23T13:51:22;3.50;99.90
19555;DHT22;9924;50.828;6.440;2023-01-23T13:54:14;3.40;99.90
19555;DHT22;9924;50.828;6.440;2023-01-23T13:57:20;3.40;99.90
19555;DHT22;9924;50.828;6.440;2023-01-23T14:00:14;3.40;99.90
19555;DHT22;9924;50.828;6.440;2023-01-23T14:06:33;3.50;99.90
19555;DHT22;9924;50.828;6.440;2023-01-23T14:09:24;3.40;99.90
19555;DHT22;9924;50.828;6.440;2023-01-23T14:12:09;3.40;99.90
19555;DHT22;9924;50.828;6.440;2023-01-23T14:14:53;3.40;99.90
19555;DHT22;9924;50.828;6.440;2023-01-23T14:17:56;3.30;99.90
19555;DHT22;9924;50.828;6.440;2023-01-23T14:20:41;3.30;99.90
19555;DHT22;9924;50.828;6.440;2023-01-23T14:23:34;3.40;99.90
19555;DHT22;9924;50.828;6.440;2023-01-23T14:26:24;3.30;99.90
19555;DHT22;9924;50.828;6.440;2023-01-23T14:29:24;3.30;99.90
19555;DHT22;9924;50.828;6.440;2023-01-23T14:32:25;3.30;99.90
19555;DHT22;9924;50.828;6.440;2023-01-23T14:35:22;3.20;99.90
19555;DHT22;9924;50.828;6.440;2023-01-23T14:38:07;3.20;99.90
19555;DHT22;9924;50.828;6.440;2023-01-23T14:40:52;3.20;99.90
19555;DHT22;9924;50.828;6.440;2023-01-23T14:43:37;3.20;99.90
19555;DHT22;9924;50.828;6.440;2023-01-23T14:49:21;3.30;99.90
19555;DHT22;9924;50.828;6.440;2023-01-23T14:52:21;3.20;99.90
19555;DHT22;9924;50.828;6.440;2023-01-23T14:55:20;3.20;99.90
19555;DHT22;9924;50.828;6.440;2023-01-23T14:58:05;3.10;99.90
19555;DHT22;9924;50.828;6.440;2023-01-23T15:00:51;3.10;99.90
19555;DHT22;9924;50.828;6.440;2023-01-23T15:03:42;3.10;99.90
19555;DHT22;9924;50.828;6.440;2023-01-23T15:06:27;3.10;99.90
19555;DHT22;9924;50.828;6.440;2023-01-23T15:09:15;3.20;99.90
19555;DHT22;9924;50.828;6.440;2023-01-23T15:12:05;3.10;99.90
19555;DHT22;9924;50.828;6.440;2023-01-23T15:14:53;3.20;99.90
19555;DHT22;9924;50.828;6.440;2023-01-23T15:17:43;3.20;99.90
19555;DHT22;9924;50.828;6.440;2023-01-23T15:20:38;3.20;99.90
19555;DHT22;9924;50.828;6.440;2023-01-23T15:23:34;3.10;99.90
19555;DHT22;9924;50.828;6.440;2023-01-23T15:26:31;3.10;99.90
19555;DHT22;9924;50.828;6.440;2023-01-23T15:29:18;3.10;99.90
19555;DHT22;9924;50.828;6.440;2023-01-23T15:32:19;3.10;99.90
19555;DHT22;9924;50.828;6.440;2023-01-23T15:35:14;3.00;99.90
19555;DHT22;9924;50.828;6.440;2023-01-23T15:38:00;3.00;99.90
19555;DHT22;9924;50.828;6.440;2023-01-23T15:40:48;3.00;99.90
19555;DHT22;9924;50.828;6.440;2023-01-23T15:43:32;3.00;99.90
19555;DHT22;9924;50.828;6.440;2023-01-23T15:46:17;2.90;99.90
19555;DHT22;9924;50.828;6.440;2023-01-23T15:49:01;2.90;99.90
19555;DHT22;9924;50.828;6.440;2023-01-23T15:51:50;2.90;99.90
19555;DHT22;9924;50.828;6.440;2023-01-23T15:54:36;2.80;99.90
19555;DHT22;9924;50.828;6.440;2023-01-23T15:57:21;2.80;99.90
19555;DHT22;9924;50.828;6.440;2023-01-23T16:00:22;2.70;99.90
19555;DHT22;9924;50.828;6.440;2023-01-23T16:03:09;2.70;99.90
19555;DHT22;9924;50.828;6.440;2023-01-23T16:05:57;2.70;99.90
19555;DHT22;9924;50.828;6.440;2023-01-23T16:08:41;2.60;99.90
19555;DHT22;9924;50.828;6.440;2023-01-23T16:11:30;2.60;99.90
19555;DHT22;9924;50.828;6.440;2023-01-23T16:14:16;2.60;99.90
19555;DHT22;9924;50.828;6.440;2023-01-23T16:17:01;2.60;99.90
19555;DHT22;9924;50.828;6.440;2023-01-23T16:19:46;2.60;99.90
19555;DHT22;9924;50.828;6.440;2023-01-23T16:22:30;2.50;99.90
19555;DHT22;9924;50.828;6.440;2023-01-23T16:28:28;2.50;99.90
19555;DHT22;9924;50.828;6.440;2023-01-23T16:31:15;2.50;99.90
19555;DHT22;9924;50.828;6.440;2023-01-23T16:34:00;2.50;99.90
19555;DHT22;9924;50.828;6.440;2023-01-23T16:36:47;2.50;99.90
19555;DHT22;9924;50.828;6.440;2023-01-23T16:39:32;2.40;99.90
19555;DHT22;9924;50.828;6.440;2023-01-23T16:42:20;2.50;99.90
19555;DHT22;9924;50.828;6.440;2023-01-23T16:45:22;2.50;99.90
19555;DHT22;9924;50.828;6.440;2023-01-23T16:48:07;2.40;99.90
19555;DHT22;9924;50.828;6.440;2023-01-23T16:50:55;2.40;99.90
19555;DHT22;9924;50.828;6.440;2023-01-23T16:53:42;2.40;99.90
19555;DHT22;9924;50.828;6.440;2023-01-23T16:56:37;2.40;99.90
19555;DHT22;9924;50.828;6.440;2023-01-23T16:59:40;2.30;99.90
19555;DHT22;9924;50.828;6.440;2023-01-23T17:02:28;2.40;99.90
19555;DHT22;9924;50.828;6.440;2023-01-23T17:05:15;2.40;99.90
19555;DHT22;9924;50.828;6.440;2023-01-23T17:08:08;2.30;99.90
19555;DHT22;9924;50.828;6.440;2023-01-23T17:10:59;2.30;99.90
19555;DHT22;9924;50.828;6.440;2023-01-23T17:13:45;2.30;99.90
19555;DHT22;9924;50.828;6.440;2023-01-23T17:16:30;2.30;99.90
19555;DHT22;9924;50.828;6.440;2023-01-23T17:19:35;2.30;99.90
19555;DHT22;9924;50.828;6.440;2023-01-23T17:22:24;2.30;99.90
19555;DHT22;9924;50.828;6.440;2023-01-23T17:25:21;2.30;99.90
19555;DHT22;9924;50.828;6.440;2023-01-23T17:28:05;2.30;99.90
19555;DHT22;9924;50.828;6.440;2023-01-23T17:30:51;2.30;99.90
19555;DHT22;9924;50.828;6.440;2023-01-23T17:33:36;2.30;99.90
19555;DHT22;9924;50.828;6.440;2023-01-23T17:36:21;2.30;99.90
19555;DHT22;9924;50.828;6.440;2023-01-23T17:39:05;2.30;99.90
19555;DHT22;9924;50.828;6.440;2023-01-23T17:41:52;2.30;99.90
19555;DHT22;9924;50.828;6.440;2023-01-23T17:44:37;2.30;99.90
19555;DHT22;9924;50.828;6.440;2023-01-23T17:47:21;2.30;99.90
19555;DHT22;9924;50.828;6.440;2023-01-23T17:50:18;2.30;99.90
19555;DHT22;9924;50.828;6.440;2023-01-23T17:53:03;2.30;99.90
19555;DHT22;9924;50.828;6.440;2023-01-23T17:55:47;2.30;99.90
19555;DHT22;9924;50.828;6.440;2023-01-23T17:58:32;2.30;99.90
19555;DHT22;9924;50.828;6.440;2023-01-23T18:01:22;2.30;99.90
19555;DHT22;9924;50.828;6.440;2023-01-23T18:04:18;2.30;99.90
19555;DHT22;9924;50.828;6.440;2023-01-23T18:07:03;2.30;99.90
19555;DHT22;9924;50.828;6.440;2023-01-23T18:09:47;2.20;99.90
19555;DHT22;9924;50.828;6.440;2023-01-23T18:19:33;2.20;99.90
19555;DHT22;9924;50.828;6.440;2023-01-23T18:22:18;2.20;99.90
19555;DHT22;9924;50.828;6.440;2023-01-23T18:25:03;2.20;99.90
19555;DHT22;9924;50.828;6.440;2023-01-23T18:27:54;2.20;99.90
19555;DHT22;9924;50.828;6.440;2023-01-23T18:37:17;2.10;99.90
19555;DHT22;9924;50.828;6.440;2023-01-23T18:40:20;2.10;99.90
19555;DHT22;9924;50.828;6.440;2023-01-23T18:46:27;2.20;99.90
19555;DHT22;9924;50.828;6.440;2023-01-23T18:49:12;2.20;99.90
19555;DHT22;9924;50.828;6.440;2023-01-23T18:52:10;2.20;99.90
19555;DHT22;9924;50.828;6.440;2023-01-23T18:55:06;2.20;99.90
19555;DHT22;9924;50.828;6.440;2023-01-23T19:04:31;2.10;99.90
19555;DHT22;9924;50.828;6.440;2023-01-23T19:07:18;2.10;99.90
19555;DHT22;9924;50.828;6.440;2023-01-23T19:10:15;2.20;99.90
19555;DHT22;9924;50.828;6.440;2023-01-23T19:13:17;2.20;99.90
19555;DHT22;9924;50.828;6.440;2023-01-23T19:16:28;2.20;99.90
19555;DHT22;9924;50.828;6.440;2023-01-23T19:19:32;2.20;99.90
19555;DHT22;9924;50.828;6.440;2023-01-23T19:22:23;2.20;99.90
19555;DHT22;9924;50.828;6.440;2023-01-23T19:25:15;2.20;99.90
19555;DHT22;9924;50.828;6.440;2023-01-23T19:28:01;2.20;99.90
19555;DHT22;9924;50.828;6.440;2023-01-23T19:30:48;2.20;99.90
19555;DHT22;9924;50.828;6.440;2023-01-23T19:33:33;2.20;99.90
19555;DHT22;9924;50.828;6.440;2023-01-23T19:36:22;2.20;99.90
19555;DHT22;9924;50.828;6.440;2023-01-23T19:39:07;2.20;99.90
19555;DHT22;9924;50.828;6.440;2023-01-23T19:41:57;2.30;99.90
19555;DHT22;9924;50.828;6.440;2023-01-23T19:44:46;2.30;99.90
19555;DHT22;9924;50.828;6.440;2023-01-23T19:47:31;2.30;99.90
19555;DHT22;9924;50.828;6.440;2023-01-23T19:50:18;2.20;99.90
19555;DHT22;9924;50.828;6.440;2023-01-23T19:53:06;2.20;99.90
19555;DHT22;9924;50.828;6.440;2023-01-23T19:55:51;2.20;99.90
19555;DHT22;9924;50.828;6.440;2023-01-23T19:58:36;2.20;99.90
19555;DHT22;9924;50.828;6.440;2023-01-23T20:01:37;2.20;99.90
19555;DHT22;9924;50.828;6.440;2023-01-23T20:04:23;2.30;99.90
19555;DHT22;9924;50.828;6.440;2023-01-23T20:07:08;2.30;99.90
19555;DHT22;9924;50.828;6.440;2023-01-23T20:09:54;2.30;99.90